地図

経路データ

SID SEASON NUMBER BASIN SUBBASIN NAME ISO_TIME NATURE LAT LON WMO_WIND WMO_PRES WMO_AGENCY TRACK_TYPE DIST2LAND LANDFALL IFLAG USA_AGENCY USA_ATCF_ID USA_LAT USA_LON USA_RECORD USA_STATUS USA_WIND USA_PRES USA_SSHS USA_R34_NE USA_R34_SE USA_R34_SW USA_R34_NW USA_R50_NE USA_R50_SE USA_R50_SW USA_R50_NW USA_R64_NE USA_R64_SE USA_R64_SW USA_R64_NW USA_POCI USA_ROCI USA_RMW USA_EYE TOKYO_LAT TOKYO_LON TOKYO_GRADE TOKYO_WIND TOKYO_PRES TOKYO_R50_DIR TOKYO_R50_LONG TOKYO_R50_SHORT TOKYO_R30_DIR TOKYO_R30_LONG TOKYO_R30_SHORT TOKYO_LAND CMA_LAT CMA_LON CMA_CAT CMA_WIND CMA_PRES HKO_LAT HKO_LON HKO_CAT HKO_WIND HKO_PRES NEWDELHI_LAT NEWDELHI_LON NEWDELHI_GRADE NEWDELHI_WIND NEWDELHI_PRES NEWDELHI_CI NEWDELHI_DP NEWDELHI_POCI REUNION_LAT REUNION_LON REUNION_TYPE REUNION_WIND REUNION_PRES REUNION_TNUM REUNION_CI REUNION_RMW REUNION_R34_NE REUNION_R34_SE REUNION_R34_SW REUNION_R34_NW REUNION_R50_NE REUNION_R50_SE REUNION_R50_SW REUNION_R50_NW REUNION_R64_NE REUNION_R64_SE REUNION_R64_SW REUNION_R64_NW BOM_LAT BOM_LON BOM_TYPE BOM_WIND BOM_PRES BOM_TNUM BOM_CI BOM_RMW BOM_R34_NE BOM_R34_SE BOM_R34_SW BOM_R34_NW BOM_R50_NE BOM_R50_SE BOM_R50_SW BOM_R50_NW BOM_R64_NE BOM_R64_SE BOM_R64_SW BOM_R64_NW BOM_ROCI BOM_POCI BOM_EYE BOM_POS_METHOD BOM_PRES_METHOD NADI_LAT NADI_LON NADI_CAT NADI_WIND NADI_PRES WELLINGTON_LAT WELLINGTON_LON WELLINGTON_WIND WELLINGTON_PRES DS824_LAT DS824_LON DS824_STAGE DS824_WIND DS824_PRES TD9636_LAT TD9636_LON TD9636_STAGE TD9636_WIND TD9636_PRES TD9635_LAT TD9635_LON TD9635_WIND TD9635_PRES TD9635_ROCI NEUMANN_LAT NEUMANN_LON NEUMANN_CLASS NEUMANN_WIND NEUMANN_PRES MLC_LAT MLC_LON MLC_CLASS MLC_WIND MLC_PRES USA_GUST BOM_GUST BOM_GUST_PER REUNION_GUST REUNION_GUST_PER USA_SEAHGT USA_SEARAD_NE USA_SEARAD_SE USA_SEARAD_SW USA_SEARAD_NW STORM_SPEED STORM_DIR
1993229N13265 1993 56 EP MM HILARY 1993-08-17 06:00:00 TS 13.4000 -94.9000 25 1009 hurdat_epa main 292 288 O_____________ hurdat_epa EP091993 13.4000 -94.9000 TD 25 1009 -1 2 237
1993229N13265 1993 56 EP MM HILARY 1993-08-17 09:00:00 TS 13.3425 -94.9900 main 298 293 P_____________ EP091993 13.3425 -94.9900 TD 27 1008 -1 2 243
1993229N13265 1993 56 EP MM HILARY 1993-08-17 12:00:00 TS 13.3000 -95.1000 30 1008 hurdat_epa main 293 289 O_____________ hurdat_epa EP091993 13.3000 -95.1000 TD 30 1008 -1 3 257
1993229N13265 1993 56 EP MM HILARY 1993-08-17 15:00:00 TS 13.2850 -95.2425 main 289 282 P_____________ EP091993 13.2850 -95.2425 TD 30 1007 -1 3 270
1993229N13265 1993 56 EP MM HILARY 1993-08-17 18:00:00 TS 13.3000 -95.4000 30 1007 hurdat_epa main 282 279 O_____________ hurdat_epa EP091993 13.3000 -95.4000 TD 30 1007 -1 3 283
1993229N13265 1993 56 EP MM HILARY 1993-08-17 21:00:00 TS 13.3424 -95.5050 main 279 263 P_____________ EP091993 13.3424 -95.5050 TD 32 1006 -1 3 289
1993229N13265 1993 56 EP MM HILARY 1993-08-18 00:00:00 TS 13.4000 -95.7000 35 1006 hurdat_epa main 263 252 O_____________ hurdat_epa EP091993 13.4000 -95.7000 TS 35 1006 0 6 281
1993229N13265 1993 56 EP MM HILARY 1993-08-18 03:00:00 TS 13.4501 -96.0975 main 241 235 P_____________ EP091993 13.4501 -96.0975 TS 37 1004 0 9 277
1993229N13265 1993 56 EP MM HILARY 1993-08-18 06:00:00 TS 13.5000 -96.6000 40 1003 hurdat_epa main 235 235 O_____________ hurdat_epa EP091993 13.5000 -96.6000 TS 40 1003 0 10 276
1993229N13265 1993 56 EP MM HILARY 1993-08-18 09:00:00 TS 13.5423 -97.0776 main 241 233 P_____________ EP091993 13.5423 -97.0776 TS 42 1001 0 10 276
1993229N13265 1993 56 EP MM HILARY 1993-08-18 12:00:00 TS 13.6000 -97.6000 45 1000 hurdat_epa main 248 248 O_____________ hurdat_epa EP091993 13.6000 -97.6000 TS 45 1000 0 11 278
1993229N13265 1993 56 EP MM HILARY 1993-08-18 15:00:00 TS 13.6925 -98.1850 main 261 257 P_____________ EP091993 13.6925 -98.1850 TS 47 998 0 12 280
1993229N13265 1993 56 EP MM HILARY 1993-08-18 18:00:00 TS 13.8000 -98.8000 50 996 hurdat_epa main 268 268 O_____________ hurdat_epa EP091993 13.8000 -98.8000 TS 50 996 0 12 280
1993229N13265 1993 56 EP MM HILARY 1993-08-18 21:00:00 TS 13.8924 -99.4001 main 282 282 P_____________ EP091993 13.8924 -99.4001 TS 52 994 0 12 280
1993229N13265 1993 56 EP MM HILARY 1993-08-19 00:00:00 TS 14.0000 -100.000 55 993 hurdat_epa main 298 298 O_____________ hurdat_epa EP091993 14.0000 -100.000 TS 55 993 0 12 281
1993229N13265 1993 56 EP MM HILARY 1993-08-19 03:00:00 TS 14.1275 -100.615 main 306 299 P_____________ EP091993 14.1275 -100.615 TS 57 991 0 12 284
1993229N13265 1993 56 EP MM HILARY 1993-08-19 06:00:00 TS 14.3000 -101.200 60 990 hurdat_epa main 313 313 O_____________ hurdat_epa EP091993 14.3000 -101.200 TS 60 990 0 12 291
1993229N13265 1993 56 EP MM HILARY 1993-08-19 09:00:00 TS 14.5348 -101.723 main 317 299 P_____________ EP091993 14.5348 -101.723 TS 62 988 0 11 297
1993229N13265 1993 56 EP MM HILARY 1993-08-19 12:00:00 TS 14.8000 -102.200 65 987 hurdat_epa main 303 297 O_____________ hurdat_epa EP091993 14.8000 -102.200 HU 65 987 1 11 298
1993229N13265 1993 56 EP MM HILARY 1993-08-19 15:00:00 TS 15.0350 -102.680 main 309 299 P_____________ EP091993 15.0350 -102.680 HU 67 985 1 10 300
1993229N13265 1993 56 EP MM HILARY 1993-08-19 18:00:00 TS 15.3000 -103.100 70 984 hurdat_epa main 303 278 O_____________ hurdat_epa EP091993 15.3000 -103.100 HU 70 984 1 9 311
1993229N13265 1993 56 EP MM HILARY 1993-08-19 21:00:00 TS 15.6423 -103.408 main 281 249 P_____________ EP091993 15.6423 -103.408 HU 72 982 1 9 320
1993229N13265 1993 56 EP MM HILARY 1993-08-20 00:00:00 TS 16.0000 -103.700 75 981 hurdat_epa main 249 228 O_____________ hurdat_epa EP091993 16.0000 -103.700 HU 75 981 1 9 316
1993229N13265 1993 56 EP MM HILARY 1993-08-20 03:00:00 TS 16.3000 -104.078 main 232 217 P_____________ EP091993 16.3000 -104.078 HU 75 979 1 10 308
1993229N13265 1993 56 EP MM HILARY 1993-08-20 06:00:00 TS 16.6000 -104.500 75 978 hurdat_epa main 217 208 O_____________ hurdat_epa EP091993 16.6000 -104.500 HU 75 978 1 11 309
1993229N13265 1993 56 EP MM HILARY 1993-08-20 09:00:00 TS 16.9649 -104.942 main 207 207 P_____________ EP091993 16.9649 -104.942 HU 77 976 1 11 309
1993229N13265 1993 56 EP MM HILARY 1993-08-20 12:00:00 TS 17.3000 -105.400 80 975 hurdat_epa main 221 212 O_____________ hurdat_epa EP091993 17.3000 -105.400 HU 80 975 1 11 302
1993229N13265 1993 56 EP MM HILARY 1993-08-20 15:00:00 TS 17.5300 -105.873 main 222 213 P_____________ EP091993 17.5300 -105.873 HU 85 972 2 9 295
1993229N13265 1993 56 EP MM HILARY 1993-08-20 18:00:00 TS 17.7000 -106.300 90 970 hurdat_epa main 230 230 O_____________ hurdat_epa EP091993 17.7000 -106.300 HU 90 970 2 8 294
1993229N13265 1993 56 EP MM HILARY 1993-08-20 21:00:00 TS 17.8574 -106.630 main 237 237 P_____________ EP091993 17.8574 -106.630 HU 92 967 2 6 298
1993229N13265 1993 56 EP MM HILARY 1993-08-21 00:00:00 TS 18.0000 -106.900 95 965 hurdat_epa main 254 253 O_____________ hurdat_epa EP091993 18.0000 -106.900 HU 95 965 2 6 300
1993229N13265 1993 56 EP MM HILARY 1993-08-21 03:00:00 TS 18.1499 -107.158 main 268 260 P_____________ EP091993 18.1499 -107.158 HU 97 962 3 6 302
1993229N13265 1993 56 EP MM HILARY 1993-08-21 06:00:00 TS 18.3000 -107.400 100 960 hurdat_epa main 270 270 O_____________ hurdat_epa EP091993 18.3000 -107.400 HU 100 960 3 5 304
1993229N13265 1993 56 EP MM HILARY 1993-08-21 09:00:00 TS 18.4499 -107.635 main 282 276 P_____________ EP091993 18.4499 -107.635 HU 102 958 3 6 302
1993229N13265 1993 56 EP MM HILARY 1993-08-21 12:00:00 TS 18.6000 -107.900 105 957 hurdat_epa main 296 296 O_____________ hurdat_epa EP091993 18.6000 -107.900 HU 105 957 3 7 296
1993229N13265 1993 56 EP MM HILARY 1993-08-21 15:00:00 TS 18.7351 -108.250 main 327 322 P_____________ EP091993 18.7351 -108.250 HU 105 957 3 7 294
1993229N13265 1993 56 EP MM HILARY 1993-08-21 18:00:00 TS 18.9000 -108.600 105 957 hurdat_epa main 346 346 O_____________ hurdat_epa EP091993 18.9000 -108.600 HU 105 957 3 7 304
1993229N13265 1993 56 EP MM HILARY 1993-08-21 21:00:00 TS 19.1199 -108.858 main 365 360 P_____________ EP091993 19.1199 -108.858 HU 102 958 3 7 317
1993229N13265 1993 56 EP MM HILARY 1993-08-22 00:00:00 TS 19.4000 -109.100 100 960 hurdat_epa main 372 360 O_____________ hurdat_epa EP091993 19.4000 -109.100 HU 100 960 3 8 322
1993229N13265 1993 56 EP MM HILARY 1993-08-22 03:00:00 TS 19.7574 -109.377 main 349 313 P_____________ EP091993 19.7574 -109.377 HU 97 961 3 9 321
1993229N13265 1993 56 EP MM HILARY 1993-08-22 06:00:00 TS 20.1000 -109.700 95 963 hurdat_epa main 313 279 O_____________ hurdat_epa EP091993 20.1000 -109.700 HU 95 963 2 10 312
1993229N13265 1993 56 EP MM HILARY 1993-08-22 09:00:00 TS 20.3902 -110.130 main 279 270 P_____________ EP091993 20.3902 -110.130 HU 90 968 2 9 298
1993229N13265 1993 56 EP MM HILARY 1993-08-22 12:00:00 TS 20.5000 -110.500 85 973 hurdat_epa main 273 273 O_____________ hurdat_epa EP091993 20.5000 -110.500 HU 85 973 2 5 258
1993229N13265 1993 56 EP MM HILARY 1993-08-22 15:00:00 TS 20.2798 -110.675 main 299 299 P_____________ EP091993 20.2798 -110.675 HU 77 978 1 5 200
1993229N13265 1993 56 EP MM HILARY 1993-08-22 18:00:00 TS 20.0000 -110.700 70 983 hurdat_epa main 332 330 O_____________ hurdat_epa EP091993 20.0000 -110.700 HU 70 983 1 3 169
1993229N13265 1993 56 EP MM HILARY 1993-08-22 21:00:00 TS 19.9550 -110.600 main 330 328 P_____________ EP091993 19.9550 -110.600 HU 65 986 1 2 90
1993229N13265 1993 56 EP MM HILARY 1993-08-23 00:00:00 TS 20.0000 -110.500 60 990 hurdat_epa main 328 328 O_____________ hurdat_epa EP091993 20.0000 -110.500 TS 60 990 0 1 33
1993229N13265 1993 56 EP MM HILARY 1993-08-23 03:00:00 TS 20.0125 -110.570 main 330 319 P_____________ EP091993 20.0125 -110.570 TS 57 992 0 2 298
1993229N13265 1993 56 EP MM HILARY 1993-08-23 06:00:00 TS 20.1000 -110.700 55 995 hurdat_epa main 321 302 O_____________ hurdat_epa EP091993 20.1000 -110.700 TS 55 995 0 4 320
1993229N13265 1993 56 EP MM HILARY 1993-08-23 09:00:00 TS 20.3125 -110.837 main 302 273 P_____________ EP091993 20.3125 -110.837 TS 52 996 0 5 340
1993229N13265 1993 56 EP MM HILARY 1993-08-23 12:00:00 TS 20.6000 -110.900 50 998 hurdat_epa main 273 238 O_____________ hurdat_epa EP091993 20.6000 -110.900 TS 50 998 0 6 7
1993229N13265 1993 56 EP MM HILARY 1993-08-23 15:00:00 TS 20.9076 -110.750 main 238 199 P_____________ EP091993 20.9076 -110.750 TS 47 998 0 7 25
1993229N13265 1993 56 EP MM HILARY 1993-08-23 18:00:00 TS 21.2000 -110.600 45 999 hurdat_epa main 199 178 O_____________ hurdat_epa EP091993 21.2000 -110.600 TS 45 999 0 5 8
1993229N13265 1993 56 EP MM HILARY 1993-08-23 21:00:00 TS 21.4150 -110.662 main 182 167 P_____________ EP091993 21.4150 -110.662 TS 42 999 0 4 335
1993229N13265 1993 56 EP MM HILARY 1993-08-24 00:00:00 TS 21.6000 -110.800 40 1000 hurdat_epa main 167 153 O_____________ hurdat_epa EP091993 21.6000 -110.800 TS 40 1000 0 4 330
1993229N13265 1993 56 EP MM HILARY 1993-08-24 03:00:00 TS 21.7925 -110.900 main 153 143 P_____________ EP091993 21.7925 -110.900 TS 37 1000 0 4 335
1993229N13265 1993 56 EP MM HILARY 1993-08-24 06:00:00 TS 22.0000 -111.000 35 1001 hurdat_epa main 143 136 O_____________ hurdat_epa EP091993 22.0000 -111.000 TS 35 1001 0 5 339
1993229N13265 1993 56 EP MM HILARY 1993-08-24 09:00:00 TS 22.2575 -111.093 main 131 125 P_____________ EP091993 22.2575 -111.093 TS 35 1000 0 5 340
1993229N13265 1993 56 EP MM HILARY 1993-08-24 12:00:00 TS 22.5000 -111.200 35 1000 hurdat_epa main 130 127 O_____________ hurdat_epa EP091993 22.5000 -111.200 TS 35 1000 0 5 329
1993229N13265 1993 56 EP MM HILARY 1993-08-24 15:00:00 TS 22.6500 -111.350 main 138 136 P_____________ EP091993 22.6500 -111.350 TS 37 999 0 4 317
1993229N13265 1993 56 EP MM HILARY 1993-08-24 18:00:00 TS 22.8000 -111.500 40 998 hurdat_epa main 136 128 O_____________ hurdat_epa EP091993 22.8000 -111.500 TS 40 998 0 4 329
1993229N13265 1993 56 EP MM HILARY 1993-08-24 21:00:00 TS 23.0274 -111.593 main 128 108 P_____________ EP091993 23.0274 -111.593 TS 42 997 0 5 340
1993229N13265 1993 56 EP MM HILARY 1993-08-25 00:00:00 TS 23.3000 -111.700 45 996 hurdat_epa main 108 94 O_____________ hurdat_epa EP091993 23.3000 -111.700 TS 45 996 0 6 333
1993229N13265 1993 56 EP MM HILARY 1993-08-25 03:00:00 TS 23.5851 -111.900 main 94 73 P_____________ EP091993 23.5851 -111.900 TS 47 995 0 7 329
1993229N13265 1993 56 EP MM HILARY 1993-08-25 06:00:00 TS 23.9000 -112.100 50 994 hurdat_epa main 73 52 O_____________ hurdat_epa EP091993 23.9000 -112.100 TS 50 994 0 7 334
1993229N13265 1993 56 EP MM HILARY 1993-08-25 09:00:00 TS 24.1985 -112.236 main 52 23 P_____________ EP091993 24.1765 -112.239 TS 50 993 0 7 345
1993229N13265 1993 56 EP MM HILARY 1993-08-25 12:00:00 TS 24.6000 -112.300 50 993 hurdat_epa main 23 10 O_____________ hurdat_epa EP091993 24.6000 -112.300 TS 50 993 0 9 354
1993229N13265 1993 56 EP MM HILARY 1993-08-25 13:00:00 TS 24.7731 -112.305 50 993 hurdat_epa main 10 10 O_____________ hurdat_epa EP091993 24.8000 -112.300 L TS 50 993 0 9 358
1993229N13265 1993 56 EP MM HILARY 1993-08-25 15:00:00 TS 25.0330 -112.310 main 20 20 P_____________ EP091993 25.0708 -112.304 TS 51 992 0 6 0
1993229N13265 1993 56 EP MM HILARY 1993-08-25 18:00:00 TS 25.3000 -112.300 55 991 hurdat_epa main 20 20 O_____________ hurdat_epa EP091993 25.3000 -112.300 TS 55 991 0 5 4
1993229N13265 1993 56 EP MM HILARY 1993-08-25 21:00:00 TS 25.5730 -112.258 main 20 9 P_____________ EP091993 25.5707 -112.258 TS 52 993 0 6 8
1993229N13265 1993 56 EP MM HILARY 1993-08-26 00:00:00 TS 25.9000 -112.200 50 995 hurdat_epa main 9 0 O_____________ hurdat_epa EP091993 25.9000 -112.200 L TS 50 995 0 8 8
1993229N13265 1993 56 EP MM HILARY 1993-08-26 03:00:00 TS 26.3700 -112.143 main 0 0 P_____________ EP091993 26.3700 -112.143 TS 42 1000 0 10 5
1993229N13265 1993 56 EP MM HILARY 1993-08-26 06:00:00 TS 26.9000 -112.100 35 1005 hurdat_epa main 0 0 O_____________ hurdat_epa EP091993 26.9000 -112.100 TS 35 1005 0 10 3
1993229N13265 1993 56 EP MM HILARY 1993-08-26 09:00:00 TS 27.3850 -112.085 main 19 19 P_____________ EP091993 27.3850 -112.085 TS 32 1006 -1 10 1
1993229N13265 1993 56 EP MM HILARY 1993-08-26 12:00:00 TS 27.9000 -112.100 30 1007 hurdat_epa main 44 36 O_____________ hurdat_epa EP091993 27.9000 -112.100 TD 30 1007 -1 12 359
1993229N13265 1993 56 EP MM HILARY 1993-08-26 15:00:00 TS 28.5300 -112.128 main 36 0 P_____________ EP091993 28.5300 -112.128 TD 30 1007 -1 12 356
1993229N13265 1993 56 EP MM HILARY 1993-08-26 18:00:00 TS 29.1000 -112.200 30 1008 hurdat_epa main 0 0 O_____________ hurdat_epa EP091993 29.1000 -112.200 L TD 30 1008 -1 9 349
1993229N13265 1993 56 EP MM HILARY 1993-08-26 21:00:00 TS 29.4150 -112.335 main 0 0 P_____________ EP091993 29.4150 -112.335 TD 27 1008 -1 7 336
1993229N13265 1993 56 EP MM HILARY 1993-08-27 00:00:00 TS 29.7000 -112.500 25 1009 hurdat_epa main 0 0 O_____________ hurdat_epa EP091993 29.7000 -112.500 TD 25 1009 -1 8 339
1993229N13265 1993 56 EP MM HILARY 1993-08-27 03:00:00 TS 30.1450 -112.655 main 0 0 P_____________ EP091993 30.1450 -112.655 TD 22 1010 -1 10 345
1993229N13265 1993 56 EP MM HILARY 1993-08-27 06:00:00 TS 30.7000 -112.800 20 1011 hurdat_epa main 0 O_____________ hurdat_epa EP091993 30.7000 -112.800 TD 20 1011 -1 11 347

IBTrACS Databaseについて

本データベースは、米国NOAAが公開する1842年以降の世界の熱帯低気圧のベストトラックデータアーカイブInternational Best Track Archive for Climate Stewardship (IBTrACS)を、ウェブで閲覧しやすい形式に変換したものです。

最終更新日:2021-12-01